sensor_id;sensor_type;location;lat;lon;timestamp;P1;durP1;ratioP1;P2;durP2;ratioP2
69053;SDS011;56125;52.242;4.756;2022-12-24T00:02:57;6.43;;;1.48;;
69053;SDS011;56125;52.242;4.756;2022-12-24T00:07:58;5.20;;;1.40;;
69053;SDS011;56125;52.242;4.756;2022-12-24T00:12:59;8.07;;;1.95;;
69053;SDS011;56125;52.242;4.756;2022-12-24T00:18:00;5.97;;;2.27;;
69053;SDS011;56125;52.242;4.756;2022-12-24T00:23:01;5.57;;;1.48;;
69053;SDS011;56125;52.242;4.756;2022-12-24T00:28:02;6.87;;;1.90;;
69053;SDS011;56125;52.242;4.756;2022-12-24T00:33:03;7.03;;;1.67;;
69053;SDS011;56125;52.242;4.756;2022-12-24T00:38:05;9.30;;;1.80;;
69053;SDS011;56125;52.242;4.756;2022-12-24T00:43:06;8.13;;;1.83;;
69053;SDS011;56125;52.242;4.756;2022-12-24T00:48:07;6.07;;;1.80;;
69053;SDS011;56125;52.242;4.756;2022-12-24T00:53:08;7.90;;;1.92;;
69053;SDS011;56125;52.242;4.756;2022-12-24T00:58:09;9.90;;;2.10;;
69053;SDS011;56125;52.242;4.756;2022-12-24T01:03:10;7.38;;;1.98;;
69053;SDS011;56125;52.242;4.756;2022-12-24T01:08:11;11.07;;;2.20;;
69053;SDS011;56125;52.242;4.756;2022-12-24T01:13:12;9.50;;;1.98;;
69053;SDS011;56125;52.242;4.756;2022-12-24T01:18:13;6.00;;;1.77;;
69053;SDS011;56125;52.242;4.756;2022-12-24T01:23:14;9.07;;;2.00;;
69053;SDS011;56125;52.242;4.756;2022-12-24T01:28:15;10.27;;;2.00;;
69053;SDS011;56125;52.242;4.756;2022-12-24T01:33:17;11.18;;;2.33;;
69053;SDS011;56125;52.242;4.756;2022-12-24T01:38:18;10.77;;;2.20;;
69053;SDS011;56125;52.242;4.756;2022-12-24T01:43:20;7.63;;;2.20;;
69053;SDS011;56125;52.242;4.756;2022-12-24T01:53:33;10.57;;;1.88;;
69053;SDS011;56125;52.242;4.756;2022-12-24T01:58:37;7.77;;;2.27;;
69053;SDS011;56125;52.242;4.756;2022-12-24T02:03:42;8.45;;;1.85;;
69053;SDS011;56125;52.242;4.756;2022-12-24T02:08:43;9.10;;;2.67;;
69053;SDS011;56125;52.242;4.756;2022-12-24T02:13:46;7.47;;;2.30;;
69053;SDS011;56125;52.242;4.756;2022-12-24T02:24:19;11.10;;;1.80;;
69053;SDS011;56125;52.242;4.756;2022-12-24T02:35:14;7.72;;;2.03;;
69053;SDS011;56125;52.242;4.756;2022-12-24T02:40:31;7.57;;;1.73;;
69053;SDS011;56125;52.242;4.756;2022-12-24T02:45:37;6.53;;;1.73;;
69053;SDS011;56125;52.242;4.756;2022-12-24T02:50:59;9.47;;;2.20;;
69053;SDS011;56125;52.242;4.756;2022-12-24T03:11:44;4.13;;;1.40;;
69053;SDS011;56125;52.242;4.756;2022-12-24T03:16:50;7.82;;;1.98;;
69053;SDS011;56125;52.242;4.756;2022-12-24T03:21:51;8.70;;;2.03;;
69053;SDS011;56125;52.242;4.756;2022-12-24T03:26:56;7.78;;;1.85;;
69053;SDS011;56125;52.242;4.756;2022-12-24T03:31:59;9.50;;;2.30;;
69053;SDS011;56125;52.242;4.756;2022-12-24T03:37:02;7.32;;;1.45;;
69053;SDS011;56125;52.242;4.756;2022-12-24T03:42:03;4.80;;;1.77;;
69053;SDS011;56125;52.242;4.756;2022-12-24T03:47:04;5.97;;;1.42;;
69053;SDS011;56125;52.242;4.756;2022-12-24T03:52:05;7.97;;;1.90;;
69053;SDS011;56125;52.242;4.756;2022-12-24T03:57:06;3.97;;;1.52;;
69053;SDS011;56125;52.242;4.756;2022-12-24T04:02:07;4.67;;;1.40;;
69053;SDS011;56125;52.242;4.756;2022-12-24T04:07:09;5.60;;;1.70;;
69053;SDS011;56125;52.242;4.756;2022-12-24T04:12:10;4.77;;;1.40;;
69053;SDS011;56125;52.242;4.756;2022-12-24T04:17:11;6.40;;;1.40;;
69053;SDS011;56125;52.242;4.756;2022-12-24T04:22:12;6.37;;;1.70;;
69053;SDS011;56125;52.242;4.756;2022-12-24T04:27:16;7.03;;;1.73;;
69053;SDS011;56125;52.242;4.756;2022-12-24T04:32:17;7.63;;;1.50;;
69053;SDS011;56125;52.242;4.756;2022-12-24T04:37:18;6.43;;;1.65;;
69053;SDS011;56125;52.242;4.756;2022-12-24T04:42:19;6.63;;;1.57;;
69053;SDS011;56125;52.242;4.756;2022-12-24T04:47:20;5.28;;;1.63;;
69053;SDS011;56125;52.242;4.756;2022-12-24T04:52:21;5.73;;;1.60;;
69053;SDS011;56125;52.242;4.756;2022-12-24T04:57:22;4.95;;;1.42;;
69053;SDS011;56125;52.242;4.756;2022-12-24T05:02:23;6.23;;;1.50;;
69053;SDS011;56125;52.242;4.756;2022-12-24T05:07:24;5.10;;;1.60;;
69053;SDS011;56125;52.242;4.756;2022-12-24T05:12:25;9.73;;;1.70;;
69053;SDS011;56125;52.242;4.756;2022-12-24T05:17:26;7.75;;;1.55;;
69053;SDS011;56125;52.242;4.756;2022-12-24T05:22:27;4.00;;;1.47;;
69053;SDS011;56125;52.242;4.756;2022-12-24T05:27:47;7.53;;;1.48;;
69053;SDS011;56125;52.242;4.756;2022-12-24T05:32:48;8.40;;;1.77;;
69053;SDS011;56125;52.242;4.756;2022-12-24T05:37:49;6.35;;;1.38;;
69053;SDS011;56125;52.242;4.756;2022-12-24T05:42:50;7.93;;;1.50;;
69053;SDS011;56125;52.242;4.756;2022-12-24T05:47:51;5.80;;;1.67;;
69053;SDS011;56125;52.242;4.756;2022-12-24T05:52:52;5.97;;;1.80;;
69053;SDS011;56125;52.242;4.756;2022-12-24T05:57:53;6.25;;;1.60;;
69053;SDS011;56125;52.242;4.756;2022-12-24T06:02:54;8.20;;;1.63;;
69053;SDS011;56125;52.242;4.756;2022-12-24T06:07:55;6.55;;;1.45;;
69053;SDS011;56125;52.242;4.756;2022-12-24T06:12:56;8.80;;;1.53;;
69053;SDS011;56125;52.242;4.756;2022-12-24T06:17:57;8.00;;;1.67;;
69053;SDS011;56125;52.242;4.756;2022-12-24T06:22:58;10.00;;;2.00;;
69053;SDS011;56125;52.242;4.756;2022-12-24T06:27:59;6.95;;;1.75;;
69053;SDS011;56125;52.242;4.756;2022-12-24T06:33:00;6.20;;;1.73;;
69053;SDS011;56125;52.242;4.756;2022-12-24T06:38:01;6.07;;;1.80;;
69053;SDS011;56125;52.242;4.756;2022-12-24T06:43:02;8.83;;;1.80;;
69053;SDS011;56125;52.242;4.756;2022-12-24T06:48:03;6.05;;;1.77;;
69053;SDS011;56125;52.242;4.756;2022-12-24T06:53:05;5.13;;;1.60;;
69053;SDS011;56125;52.242;4.756;2022-12-24T06:58:06;6.15;;;1.83;;
69053;SDS011;56125;52.242;4.756;2022-12-24T07:03:07;5.63;;;1.47;;
69053;SDS011;56125;52.242;4.756;2022-12-24T07:08:09;7.43;;;1.80;;
69053;SDS011;56125;52.242;4.756;2022-12-24T07:13:10;7.13;;;1.53;;
69053;SDS011;56125;52.242;4.756;2022-12-24T07:18:11;6.35;;;1.75;;
69053;SDS011;56125;52.242;4.756;2022-12-24T07:23:12;7.03;;;2.17;;
69053;SDS011;56125;52.242;4.756;2022-12-24T07:28:13;11.40;;;1.90;;
69053;SDS011;56125;52.242;4.756;2022-12-24T07:33:14;8.13;;;1.43;;
69053;SDS011;56125;52.242;4.756;2022-12-24T07:38:15;6.75;;;1.75;;
69053;SDS011;56125;52.242;4.756;2022-12-24T07:43:16;6.37;;;1.47;;
69053;SDS011;56125;52.242;4.756;2022-12-24T07:48:17;7.72;;;1.92;;
69053;SDS011;56125;52.242;4.756;2022-12-24T07:53:18;6.70;;;1.60;;
69053;SDS011;56125;52.242;4.756;2022-12-24T07:58:20;7.75;;;2.15;;
69053;SDS011;56125;52.242;4.756;2022-12-24T08:03:22;6.27;;;1.90;;
69053;SDS011;56125;52.242;4.756;2022-12-24T08:08:23;7.53;;;1.85;;
69053;SDS011;56125;52.242;4.756;2022-12-24T08:13:24;8.20;;;2.03;;
69053;SDS011;56125;52.242;4.756;2022-12-24T08:18:25;9.45;;;2.30;;
69053;SDS011;56125;52.242;4.756;2022-12-24T08:23:26;6.90;;;1.80;;
69053;SDS011;56125;52.242;4.756;2022-12-24T08:28:27;10.30;;;1.83;;
69053;SDS011;56125;52.242;4.756;2022-12-24T08:33:28;6.37;;;1.90;;
69053;SDS011;56125;52.242;4.756;2022-12-24T08:38:31;11.57;;;2.15;;
69053;SDS011;56125;52.242;4.756;2022-12-24T08:43:32;11.20;;;2.00;;
69053;SDS011;56125;52.242;4.756;2022-12-24T08:48:33;7.43;;;2.10;;
69053;SDS011;56125;52.242;4.756;2022-12-24T08:53:36;7.50;;;2.00;;
69053;SDS011;56125;52.242;4.756;2022-12-24T08:58:38;11.30;;;2.47;;
69053;SDS011;56125;52.242;4.756;2022-12-24T09:03:39;11.57;;;2.40;;
69053;SDS011;56125;52.242;4.756;2022-12-24T09:08:41;9.20;;;1.83;;
69053;SDS011;56125;52.242;4.756;2022-12-24T09:13:42;10.97;;;2.10;;
69053;SDS011;56125;52.242;4.756;2022-12-24T09:18:44;9.30;;;2.00;;
69053;SDS011;56125;52.242;4.756;2022-12-24T09:23:45;9.53;;;1.80;;
69053;SDS011;56125;52.242;4.756;2022-12-24T09:28:47;7.70;;;1.90;;
69053;SDS011;56125;52.242;4.756;2022-12-24T09:33:50;12.35;;;2.13;;
69053;SDS011;56125;52.242;4.756;2022-12-24T09:38:53;5.90;;;1.60;;
69053;SDS011;56125;52.242;4.756;2022-12-24T09:44:30;6.40;;;1.70;;
69053;SDS011;56125;52.242;4.756;2022-12-24T09:49:35;11.63;;;2.50;;
69053;SDS011;56125;52.242;4.756;2022-12-24T09:54:40;5.95;;;1.55;;
69053;SDS011;56125;52.242;4.756;2022-12-24T09:59:47;6.80;;;1.80;;
69053;SDS011;56125;52.242;4.756;2022-12-24T10:04:49;4.43;;;1.58;;
69053;SDS011;56125;52.242;4.756;2022-12-24T10:25:47;8.63;;;1.85;;
69053;SDS011;56125;52.242;4.756;2022-12-24T10:30:57;9.30;;;2.00;;
69053;SDS011;56125;52.242;4.756;2022-12-24T10:36:00;7.47;;;1.80;;
69053;SDS011;56125;52.242;4.756;2022-12-24T10:41:02;8.47;;;1.70;;
69053;SDS011;56125;52.242;4.756;2022-12-24T10:46:04;7.65;;;1.50;;
69053;SDS011;56125;52.242;4.756;2022-12-24T10:51:16;6.43;;;1.63;;
69053;SDS011;56125;52.242;4.756;2022-12-24T10:56:25;6.03;;;1.90;;
69053;SDS011;56125;52.242;4.756;2022-12-24T11:01:42;8.10;;;1.97;;
69053;SDS011;56125;52.242;4.756;2022-12-24T11:06:52;5.10;;;1.45;;
69053;SDS011;56125;52.242;4.756;2022-12-24T11:12:05;8.07;;;1.73;;
69053;SDS011;56125;52.242;4.756;2022-12-24T11:17:19;4.53;;;1.55;;
69053;SDS011;56125;52.242;4.756;2022-12-24T11:22:23;5.80;;;1.80;;
69053;SDS011;56125;52.242;4.756;2022-12-24T11:27:38;5.30;;;1.45;;
69053;SDS011;56125;52.242;4.756;2022-12-24T11:32:47;7.73;;;1.70;;
69053;SDS011;56125;52.242;4.756;2022-12-24T11:43:00;4.97;;;1.60;;
69053;SDS011;56125;52.242;4.756;2022-12-24T11:48:21;8.10;;;1.63;;
69053;SDS011;56125;52.242;4.756;2022-12-24T11:53:35;4.87;;;1.60;;
69053;SDS011;56125;52.242;4.756;2022-12-24T11:58:48;9.70;;;1.80;;
69053;SDS011;56125;52.242;4.756;2022-12-24T12:03:55;5.37;;;1.30;;
69053;SDS011;56125;52.242;4.756;2022-12-24T12:09:01;7.65;;;1.65;;
69053;SDS011;56125;52.242;4.756;2022-12-24T12:14:21;5.67;;;1.23;;
69053;SDS011;56125;52.242;4.756;2022-12-24T12:19:33;5.07;;;1.40;;
69053;SDS011;56125;52.242;4.756;2022-12-24T12:24:43;4.33;;;1.43;;
69053;SDS011;56125;52.242;4.756;2022-12-24T12:29:55;6.22;;;1.60;;
69053;SDS011;56125;52.242;4.756;2022-12-24T12:35:03;7.83;;;1.70;;
69053;SDS011;56125;52.242;4.756;2022-12-24T12:40:15;7.07;;;1.60;;
69053;SDS011;56125;52.242;4.756;2022-12-24T12:45:28;5.30;;;1.50;;
69053;SDS011;56125;52.242;4.756;2022-12-24T13:17:36;7.37;;;1.70;;
69053;SDS011;56125;52.242;4.756;2022-12-24T13:23:00;6.70;;;1.42;;
69053;SDS011;56125;52.242;4.756;2022-12-24T13:49:12;7.67;;;1.47;;
69053;SDS011;56125;52.242;4.756;2022-12-24T13:54:20;5.90;;;1.42;;
69053;SDS011;56125;52.242;4.756;2022-12-24T13:59:26;6.07;;;1.40;;
69053;SDS011;56125;52.242;4.756;2022-12-24T14:04:37;4.47;;;1.63;;
69053;SDS011;56125;52.242;4.756;2022-12-24T14:09:44;5.63;;;1.60;;
69053;SDS011;56125;52.242;4.756;2022-12-24T14:14:49;5.15;;;1.55;;
69053;SDS011;56125;52.242;4.756;2022-12-24T14:19:51;5.13;;;1.43;;
69053;SDS011;56125;52.242;4.756;2022-12-24T14:35:07;6.28;;;1.50;;
69053;SDS011;56125;52.242;4.756;2022-12-24T14:40:15;8.23;;;1.77;;
69053;SDS011;56125;52.242;4.756;2022-12-24T14:45:30;4.70;;;1.42;;
69053;SDS011;56125;52.242;4.756;2022-12-24T14:50:39;9.03;;;2.00;;
69053;SDS011;56125;52.242;4.756;2022-12-24T14:56:35;5.50;;;1.50;;
69053;SDS011;56125;52.242;4.756;2022-12-24T15:01:29;6.87;;;1.50;;
69053;SDS011;56125;52.242;4.756;2022-12-24T15:06:34;7.20;;;2.03;;
69053;SDS011;56125;52.242;4.756;2022-12-24T15:11:38;4.40;;;1.33;;
69053;SDS011;56125;52.242;4.756;2022-12-24T15:16:54;6.78;;;1.65;;
69053;SDS011;56125;52.242;4.756;2022-12-24T15:22:00;7.77;;;1.80;;
69053;SDS011;56125;52.242;4.756;2022-12-24T15:27:10;20.83;;;2.63;;
69053;SDS011;56125;52.242;4.756;2022-12-24T15:32:17;10.10;;;1.87;;
69053;SDS011;56125;52.242;4.756;2022-12-24T15:37:20;10.98;;;1.67;;
69053;SDS011;56125;52.242;4.756;2022-12-24T15:42:23;10.30;;;2.00;;
69053;SDS011;56125;52.242;4.756;2022-12-24T15:47:28;8.55;;;2.55;;
69053;SDS011;56125;52.242;4.756;2022-12-24T15:52:38;9.40;;;1.97;;
69053;SDS011;56125;52.242;4.756;2022-12-24T15:57:40;7.40;;;2.00;;
69053;SDS011;56125;52.242;4.756;2022-12-24T16:02:41;9.80;;;1.93;;
69053;SDS011;56125;52.242;4.756;2022-12-24T16:13:24;8.37;;;2.03;;
69053;SDS011;56125;52.242;4.756;2022-12-24T16:18:33;10.05;;;2.25;;
69053;SDS011;56125;52.242;4.756;2022-12-24T16:23:44;9.43;;;2.47;;
69053;SDS011;56125;52.242;4.756;2022-12-24T16:28:46;9.48;;;2.53;;
69053;SDS011;56125;52.242;4.756;2022-12-24T16:33:47;7.73;;;2.17;;
69053;SDS011;56125;52.242;4.756;2022-12-24T16:38:52;7.97;;;1.90;;
69053;SDS011;56125;52.242;4.756;2022-12-24T16:44:12;8.73;;;2.00;;
69053;SDS011;56125;52.242;4.756;2022-12-24T16:49:15;8.05;;;1.90;;
69053;SDS011;56125;52.242;4.756;2022-12-24T16:54:18;6.10;;;1.97;;
69053;SDS011;56125;52.242;4.756;2022-12-24T16:59:21;6.70;;;1.77;;
69053;SDS011;56125;52.242;4.756;2022-12-24T17:04:23;8.93;;;2.37;;
69053;SDS011;56125;52.242;4.756;2022-12-24T17:09:24;8.85;;;2.00;;
69053;SDS011;56125;52.242;4.756;2022-12-24T17:14:26;6.60;;;1.90;;
69053;SDS011;56125;52.242;4.756;2022-12-24T17:19:27;7.10;;;1.98;;
69053;SDS011;56125;52.242;4.756;2022-12-24T17:24:28;8.53;;;2.70;;
69053;SDS011;56125;52.242;4.756;2022-12-24T17:29:29;6.18;;;2.45;;
69053;SDS011;56125;52.242;4.756;2022-12-24T17:34:30;10.00;;;2.30;;
69053;SDS011;56125;52.242;4.756;2022-12-24T17:39:31;7.63;;;2.63;;
69053;SDS011;56125;52.242;4.756;2022-12-24T17:44:32;9.43;;;3.10;;
69053;SDS011;56125;52.242;4.756;2022-12-24T17:49:33;6.05;;;2.70;;
69053;SDS011;56125;52.242;4.756;2022-12-24T17:54:34;6.33;;;2.33;;
69053;SDS011;56125;52.242;4.756;2022-12-24T17:59:35;9.15;;;3.00;;
69053;SDS011;56125;52.242;4.756;2022-12-24T18:04:36;7.83;;;3.10;;
69053;SDS011;56125;52.242;4.756;2022-12-24T18:09:37;10.20;;;2.85;;
69053;SDS011;56125;52.242;4.756;2022-12-24T18:14:38;10.33;;;2.90;;
69053;SDS011;56125;52.242;4.756;2022-12-24T18:19:39;7.07;;;2.97;;
69053;SDS011;56125;52.242;4.756;2022-12-24T18:24:40;8.97;;;3.40;;
69053;SDS011;56125;52.242;4.756;2022-12-24T18:29:41;8.77;;;3.13;;
69053;SDS011;56125;52.242;4.756;2022-12-24T18:34:42;9.33;;;3.10;;
69053;SDS011;56125;52.242;4.756;2022-12-24T18:39:43;8.43;;;3.15;;
69053;SDS011;56125;52.242;4.756;2022-12-24T18:44:45;8.27;;;2.97;;
69053;SDS011;56125;52.242;4.756;2022-12-24T18:49:46;6.55;;;3.20;;
69053;SDS011;56125;52.242;4.756;2022-12-24T18:54:47;8.80;;;3.00;;
69053;SDS011;56125;52.242;4.756;2022-12-24T18:59:49;8.63;;;3.42;;
69053;SDS011;56125;52.242;4.756;2022-12-24T19:04:50;8.40;;;3.80;;
69053;SDS011;56125;52.242;4.756;2022-12-24T19:09:51;8.80;;;3.10;;
69053;SDS011;56125;52.242;4.756;2022-12-24T19:14:52;10.00;;;3.40;;
69053;SDS011;56125;52.242;4.756;2022-12-24T19:19:53;10.23;;;3.58;;
69053;SDS011;56125;52.242;4.756;2022-12-24T19:24:54;12.23;;;4.23;;
69053;SDS011;56125;52.242;4.756;2022-12-24T19:29:55;9.93;;;3.22;;
69053;SDS011;56125;52.242;4.756;2022-12-24T19:34:56;10.90;;;3.87;;
69053;SDS011;56125;52.242;4.756;2022-12-24T19:39:57;8.45;;;3.45;;
69053;SDS011;56125;52.242;4.756;2022-12-24T19:44:58;6.47;;;3.53;;
69053;SDS011;56125;52.242;4.756;2022-12-24T19:49:59;9.80;;;3.65;;
69053;SDS011;56125;52.242;4.756;2022-12-24T19:55:00;11.70;;;3.63;;
69053;SDS011;56125;52.242;4.756;2022-12-24T20:00:02;7.68;;;3.05;;
69053;SDS011;56125;52.242;4.756;2022-12-24T20:05:05;8.33;;;3.63;;
69053;SDS011;56125;52.242;4.756;2022-12-24T20:10:06;7.30;;;3.10;;
69053;SDS011;56125;52.242;4.756;2022-12-24T20:15:08;10.90;;;3.30;;
69053;SDS011;56125;52.242;4.756;2022-12-24T20:20:10;7.15;;;3.25;;
69053;SDS011;56125;52.242;4.756;2022-12-24T20:25:11;6.97;;;3.50;;
69053;SDS011;56125;52.242;4.756;2022-12-24T20:30:12;8.73;;;3.65;;
69053;SDS011;56125;52.242;4.756;2022-12-24T20:35:13;11.47;;;4.17;;
69053;SDS011;56125;52.242;4.756;2022-12-24T20:40:14;8.57;;;3.95;;
69053;SDS011;56125;52.242;4.756;2022-12-24T20:45:15;8.07;;;3.57;;
69053;SDS011;56125;52.242;4.756;2022-12-24T20:50:16;8.00;;;3.47;;
69053;SDS011;56125;52.242;4.756;2022-12-24T20:55:18;6.87;;;3.20;;
69053;SDS011;56125;52.242;4.756;2022-12-24T21:00:20;6.68;;;3.45;;
69053;SDS011;56125;52.242;4.756;2022-12-24T21:05:21;8.07;;;3.27;;
69053;SDS011;56125;52.242;4.756;2022-12-24T21:10:23;6.28;;;3.10;;
69053;SDS011;56125;52.242;4.756;2022-12-24T21:15:25;8.30;;;3.33;;
69053;SDS011;56125;52.242;4.756;2022-12-24T21:20:30;5.60;;;3.10;;
69053;SDS011;56125;52.242;4.756;2022-12-24T21:25:31;6.40;;;2.97;;
69053;SDS011;56125;52.242;4.756;2022-12-24T21:30:33;4.72;;;2.92;;
69053;SDS011;56125;52.242;4.756;2022-12-24T21:35:34;5.63;;;2.90;;
69053;SDS011;56125;52.242;4.756;2022-12-24T21:40:35;6.82;;;3.03;;
69053;SDS011;56125;52.242;4.756;2022-12-24T21:45:38;7.43;;;3.33;;
69053;SDS011;56125;52.242;4.756;2022-12-24T21:50:42;5.63;;;2.78;;
69053;SDS011;56125;52.242;4.756;2022-12-24T21:55:55;6.63;;;3.33;;
69053;SDS011;56125;52.242;4.756;2022-12-24T22:01:07;4.35;;;2.60;;
69053;SDS011;56125;52.242;4.756;2022-12-24T22:06:09;6.87;;;3.20;;
69053;SDS011;56125;52.242;4.756;2022-12-24T22:11:30;6.80;;;3.35;;
69053;SDS011;56125;52.242;4.756;2022-12-24T22:16:49;7.80;;;3.20;;
69053;SDS011;56125;52.242;4.756;2022-12-24T22:21:50;8.15;;;3.92;;
69053;SDS011;56125;52.242;4.756;2022-12-24T22:26:51;8.00;;;3.80;;
69053;SDS011;56125;52.242;4.756;2022-12-24T22:31:52;8.48;;;3.60;;
69053;SDS011;56125;52.242;4.756;2022-12-24T22:36:53;9.43;;;3.50;;
69053;SDS011;56125;52.242;4.756;2022-12-24T22:41:54;8.07;;;3.47;;
69053;SDS011;56125;52.242;4.756;2022-12-24T22:46:57;9.23;;;3.23;;
69053;SDS011;56125;52.242;4.756;2022-12-24T22:51:58;10.02;;;3.92;;
69053;SDS011;56125;52.242;4.756;2022-12-24T22:56:59;9.00;;;3.93;;
69053;SDS011;56125;52.242;4.756;2022-12-24T23:02:02;8.18;;;3.65;;
69053;SDS011;56125;52.242;4.756;2022-12-24T23:07:04;8.60;;;3.50;;
69053;SDS011;56125;52.242;4.756;2022-12-24T23:12:07;6.70;;;3.38;;
69053;SDS011;56125;52.242;4.756;2022-12-24T23:17:08;9.23;;;3.40;;
69053;SDS011;56125;52.242;4.756;2022-12-24T23:22:10;9.70;;;4.35;;
69053;SDS011;56125;52.242;4.756;2022-12-24T23:27:11;9.60;;;3.87;;
69053;SDS011;56125;52.242;4.756;2022-12-24T23:32:12;9.23;;;3.42;;
69053;SDS011;56125;52.242;4.756;2022-12-24T23:37:13;7.77;;;3.50;;
69053;SDS011;56125;52.242;4.756;2022-12-24T23:42:14;6.68;;;3.30;;
69053;SDS011;56125;52.242;4.756;2022-12-24T23:47:16;7.83;;;3.77;;
69053;SDS011;56125;52.242;4.756;2022-12-24T23:52:17;8.88;;;3.50;;
69053;SDS011;56125;52.242;4.756;2022-12-24T23:57:19;8.33;;;3.80;;
